sensor_id;sensor_type;location;lat;lon;timestamp;pressure;altitude;pressure_sealevel;temperature;humidity
8061;BME280;4073;42.626;25.386;2023-04-02T00:02:44;96136.03;;;8.65;100.00
8061;BME280;4073;42.626;25.386;2023-04-02T00:07:49;96140.84;;;8.63;100.00
8061;BME280;4073;42.626;25.386;2023-04-02T00:10:27;96138.53;;;8.57;100.00
8061;BME280;4073;42.626;25.386;2023-04-02T00:15:30;96146.53;;;8.57;100.00
8061;BME280;4073;42.626;25.386;2023-04-02T00:17:56;96135.63;;;8.53;100.00
8061;BME280;4073;42.626;25.386;2023-04-02T00:20:23;96147.47;;;8.66;100.00
8061;BME280;4073;42.626;25.386;2023-04-02T00:22:49;96162.44;;;8.62;100.00
8061;BME280;4073;42.626;25.386;2023-04-02T00:25:16;96131.09;;;8.54;100.00
8061;BME280;4073;42.626;25.386;2023-04-02T00:27:43;96143.78;;;8.62;100.00
8061;BME280;4073;42.626;25.386;2023-04-02T00:30:11;96145.38;;;8.63;100.00
8061;BME280;4073;42.626;25.386;2023-04-02T00:32:37;96138.00;;;8.55;100.00
8061;BME280;4073;42.626;25.386;2023-04-02T00:35:06;96135.34;;;8.55;100.00
8061;BME280;4073;42.626;25.386;2023-04-02T00:37:35;96147.81;;;8.59;100.00
8061;BME280;4073;42.626;25.386;2023-04-02T00:40:23;96152.06;;;8.60;100.00
8061;BME280;4073;42.626;25.386;2023-04-02T00:42:49;96134.63;;;8.49;100.00
8061;BME280;4073;42.626;25.386;2023-04-02T00:45:29;96131.16;;;8.49;100.00
8061;BME280;4073;42.626;25.386;2023-04-02T00:47:59;96135.19;;;8.46;100.00
8061;BME280;4073;42.626;25.386;2023-04-02T00:50:37;96121.88;;;8.46;100.00
8061;BME280;4073;42.626;25.386;2023-04-02T00:53:18;96130.38;;;8.48;100.00
8061;BME280;4073;42.626;25.386;2023-04-02T00:55:46;96121.47;;;8.58;100.00
8061;BME280;4073;42.626;25.386;2023-04-02T00:58:31;96127.53;;;8.63;100.00
8061;BME280;4073;42.626;25.386;2023-04-02T01:00:58;96125.66;;;8.64;100.00
8061;BME280;4073;42.626;25.386;2023-04-02T01:03:28;96125.56;;;8.74;100.00
8061;BME280;4073;42.626;25.386;2023-04-02T01:13:46;96120.97;;;8.98;100.00
8061;BME280;4073;42.626;25.386;2023-04-02T01:24:36;96119.03;;;9.03;100.00
8061;BME280;4073;42.626;25.386;2023-04-02T01:27:05;96126.75;;;9.05;100.00
8061;BME280;4073;42.626;25.386;2023-04-02T01:29:38;96121.47;;;9.00;100.00
8061;BME280;4073;42.626;25.386;2023-04-02T01:32:08;96131.66;;;8.98;100.00
8061;BME280;4073;42.626;25.386;2023-04-02T01:34:35;96128.69;;;8.99;100.00
8061;BME280;4073;42.626;25.386;2023-04-02T01:40:02;96138.91;;;8.92;100.00
8061;BME280;4073;42.626;25.386;2023-04-02T01:45:21;96131.38;;;8.76;100.00
8061;BME280;4073;42.626;25.386;2023-04-02T01:47:48;96141.53;;;8.74;100.00
8061;BME280;4073;42.626;25.386;2023-04-02T01:50:29;96133.53;;;8.74;100.00
8061;BME280;4073;42.626;25.386;2023-04-02T01:53:01;96143.34;;;8.55;100.00
8061;BME280;4073;42.626;25.386;2023-04-02T01:55:33;96136.94;;;8.56;100.00
8061;BME280;4073;42.626;25.386;2023-04-02T01:58:00;96140.16;;;8.53;100.00
8061;BME280;4073;42.626;25.386;2023-04-02T02:00:27;96140.22;;;8.48;100.00
8061;BME280;4073;42.626;25.386;2023-04-02T02:02:54;96133.03;;;8.48;100.00
8061;BME280;4073;42.626;25.386;2023-04-02T02:05:22;96137.56;;;8.48;100.00
8061;BME280;4073;42.626;25.386;2023-04-02T02:07:49;96152.47;;;8.49;100.00
8061;BME280;4073;42.626;25.386;2023-04-02T02:10:27;96143.44;;;8.45;100.00
8061;BME280;4073;42.626;25.386;2023-04-02T02:12:53;96145.03;;;8.46;100.00
8061;BME280;4073;42.626;25.386;2023-04-02T02:15:21;96140.22;;;8.48;100.00
8061;BME280;4073;42.626;25.386;2023-04-02T02:17:48;96141.03;;;8.48;100.00
8061;BME280;4073;42.626;25.386;2023-04-02T02:20:14;96142.38;;;8.46;100.00
8061;BME280;4073;42.626;25.386;2023-04-02T02:22:45;96151.91;;;8.52;100.00
8061;BME280;4073;42.626;25.386;2023-04-02T02:25:20;96157.75;;;8.54;100.00
8061;BME280;4073;42.626;25.386;2023-04-02T02:30:38;96161.06;;;8.64;100.00
8061;BME280;4073;42.626;25.386;2023-04-02T02:35:49;96173.63;;;8.64;100.00
8061;BME280;4073;42.626;25.386;2023-04-02T02:38:39;96165.06;;;8.67;100.00
8061;BME280;4073;42.626;25.386;2023-04-02T02:46:27;96171.06;;;8.77;100.00
8061;BME280;4073;42.626;25.386;2023-04-02T02:48:55;96172.34;;;8.80;100.00
8061;BME280;4073;42.626;25.386;2023-04-02T02:51:29;96162.75;;;8.84;100.00
8061;BME280;4073;42.626;25.386;2023-04-02T02:54:00;96167.50;;;8.87;100.00
8061;BME280;4073;42.626;25.386;2023-04-02T02:56:30;96158.19;;;8.84;100.00
8061;BME280;4073;42.626;25.386;2023-04-02T02:58:58;96168.63;;;8.81;100.00
8061;BME280;4073;42.626;25.386;2023-04-02T03:01:28;96166.53;;;8.78;100.00
8061;BME280;4073;42.626;25.386;2023-04-02T03:03:54;96159.09;;;8.75;100.00
8061;BME280;4073;42.626;25.386;2023-04-02T03:06:19;96147.94;;;8.73;100.00
8061;BME280;4073;42.626;25.386;2023-04-02T03:09:05;96141.03;;;8.72;100.00
8061;BME280;4073;42.626;25.386;2023-04-02T03:12:01;96167.56;;;8.82;100.00
8061;BME280;4073;42.626;25.386;2023-04-02T03:14:37;96160.69;;;8.76;100.00
8061;BME280;4073;42.626;25.386;2023-04-02T03:19:51;96173.22;;;8.75;100.00
8061;BME280;4073;42.626;25.386;2023-04-02T03:22:24;96173.84;;;8.67;100.00
8061;BME280;4073;42.626;25.386;2023-04-02T03:25:00;96171.97;;;8.68;100.00
8061;BME280;4073;42.626;25.386;2023-04-02T03:27:33;96185.28;;;8.68;100.00
8061;BME280;4073;42.626;25.386;2023-04-02T03:32:45;96187.44;;;8.66;100.00
8061;BME280;4073;42.626;25.386;2023-04-02T03:35:23;96178.50;;;8.57;100.00
8061;BME280;4073;42.626;25.386;2023-04-02T03:38:05;96184.56;;;8.62;100.00
8061;BME280;4073;42.626;25.386;2023-04-02T03:40:36;96176.13;;;8.55;100.00
8061;BME280;4073;42.626;25.386;2023-04-02T03:45:39;96197.59;;;8.64;100.00
8061;BME280;4073;42.626;25.386;2023-04-02T03:48:11;96187.72;;;8.64;100.00
8061;BME280;4073;42.626;25.386;2023-04-02T03:51:07;96185.88;;;8.65;100.00
8061;BME280;4073;42.626;25.386;2023-04-02T03:53:36;96198.38;;;8.64;100.00
8061;BME280;4073;42.626;25.386;2023-04-02T03:56:02;96194.13;;;8.63;100.00
8061;BME280;4073;42.626;25.386;2023-04-02T03:58:40;96199.47;;;8.63;100.00
8061;BME280;4073;42.626;25.386;2023-04-02T04:01:30;96192.59;;;8.57;100.00
8061;BME280;4073;42.626;25.386;2023-04-02T04:04:06;96205.63;;;8.59;100.00
8061;BME280;4073;42.626;25.386;2023-04-02T04:06:34;96209.94;;;8.55;100.00
8061;BME280;4073;42.626;25.386;2023-04-02T04:09:10;96204.09;;;8.53;100.00
8061;BME280;4073;42.626;25.386;2023-04-02T04:11:46;96190.03;;;8.47;100.00
8061;BME280;4073;42.626;25.386;2023-04-02T04:14:32;96188.72;;;8.45;100.00
8061;BME280;4073;42.626;25.386;2023-04-02T04:19:46;96207.28;;;8.55;100.00
8061;BME280;4073;42.626;25.386;2023-04-02T04:22:25;96196.91;;;8.53;100.00
8061;BME280;4073;42.626;25.386;2023-04-02T04:25:00;96202.19;;;8.58;100.00
8061;BME280;4073;42.626;25.386;2023-04-02T04:30:06;96208.00;;;8.60;100.00
8061;BME280;4073;42.626;25.386;2023-04-02T04:35:31;96218.34;;;8.67;100.00
8061;BME280;4073;42.626;25.386;2023-04-02T04:38:34;96221.50;;;8.69;100.00
8061;BME280;4073;42.626;25.386;2023-04-02T04:41:15;96226.56;;;8.70;100.00
8061;BME280;4073;42.626;25.386;2023-04-02T04:43:53;96187.09;;;8.49;100.00
8061;BME280;4073;42.626;25.386;2023-04-02T04:46:25;96225.25;;;8.68;100.00
8061;BME280;4073;42.626;25.386;2023-04-02T04:48:59;96221.22;;;8.70;100.00
8061;BME280;4073;42.626;25.386;2023-04-02T04:51:36;96233.63;;;8.85;100.00
8061;BME280;4073;42.626;25.386;2023-04-02T04:54:10;96232.97;;;8.93;100.00
8061;BME280;4073;42.626;25.386;2023-04-02T04:56:36;96229.53;;;8.92;100.00
8061;BME280;4073;42.626;25.386;2023-04-02T05:01:43;96222.91;;;9.13;100.00
8061;BME280;4073;42.626;25.386;2023-04-02T05:09:26;96232.66;;;9.41;100.00
8061;BME280;4073;42.626;25.386;2023-04-02T05:12:31;96229.47;;;9.39;100.00
8061;BME280;4073;42.626;25.386;2023-04-02T05:15:05;96244.59;;;9.49;100.00
8061;BME280;4073;42.626;25.386;2023-04-02T05:17:50;96244.50;;;9.54;100.00
8061;BME280;4073;42.626;25.386;2023-04-02T05:20:24;96247.63;;;9.61;100.00
8061;BME280;4073;42.626;25.386;2023-04-02T05:23:03;96249.28;;;9.75;100.00
8061;BME280;4073;42.626;25.386;2023-04-02T05:25:33;96235.66;;;9.77;100.00
8061;BME280;4073;42.626;25.386;2023-04-02T05:33:30;96259.00;;;10.40;100.00
8061;BME280;4073;42.626;25.386;2023-04-02T05:36:08;96247.09;;;10.52;100.00
8061;BME280;4073;42.626;25.386;2023-04-02T05:38:43;96248.50;;;10.76;100.00
8061;BME280;4073;42.626;25.386;2023-04-02T05:41:24;96252.31;;;11.16;100.00
8061;BME280;4073;42.626;25.386;2023-04-02T05:43:58;96261.25;;;11.52;100.00
8061;BME280;4073;42.626;25.386;2023-04-02T05:46:30;96250.66;;;11.74;100.00
8061;BME280;4073;42.626;25.386;2023-04-02T05:48:58;96253.06;;;11.97;100.00
8061;BME280;4073;42.626;25.386;2023-04-02T05:51:37;96259.75;;;12.08;100.00
8061;BME280;4073;42.626;25.386;2023-04-02T05:54:05;96263.78;;;11.97;100.00
8061;BME280;4073;42.626;25.386;2023-04-02T05:56:42;96270.06;;;11.79;100.00
8061;BME280;4073;42.626;25.386;2023-04-02T05:59:17;96247.09;;;11.65;100.00
8061;BME280;4073;42.626;25.386;2023-04-02T06:01:57;96272.91;;;11.96;100.00
8061;BME280;4073;42.626;25.386;2023-04-02T06:04:48;96273.31;;;12.25;100.00
8061;BME280;4073;42.626;25.386;2023-04-02T06:07:19;96279.06;;;12.54;100.00
8061;BME280;4073;42.626;25.386;2023-04-02T06:09:52;96262.16;;;12.54;100.00
8061;BME280;4073;42.626;25.386;2023-04-02T06:12:29;96261.75;;;12.60;100.00
8061;BME280;4073;42.626;25.386;2023-04-02T06:14:56;96271.19;;;12.58;100.00
8061;BME280;4073;42.626;25.386;2023-04-02T06:17:22;96262.72;;;12.64;100.00
8061;BME280;4073;42.626;25.386;2023-04-02T06:19:48;96266.13;;;12.78;100.00
8061;BME280;4073;42.626;25.386;2023-04-02T06:24:49;96278.13;;;13.03;100.00
8061;BME280;4073;42.626;25.386;2023-04-02T06:27:18;96272.22;;;13.32;83.98
8061;BME280;4073;42.626;25.386;2023-04-02T06:29:45;96274.41;;;13.69;73.30
8061;BME280;4073;42.626;25.386;2023-04-02T06:32:18;96284.78;;;14.18;70.12
8061;BME280;4073;42.626;25.386;2023-04-02T06:34:46;96261.25;;;14.49;67.91
8061;BME280;4073;42.626;25.386;2023-04-02T06:39:46;96292.41;;;15.30;63.71
8061;BME280;4073;42.626;25.386;2023-04-02T06:42:44;96287.16;;;15.80;62.68
8061;BME280;4073;42.626;25.386;2023-04-02T06:45:21;96283.00;;;16.11;59.73
8061;BME280;4073;42.626;25.386;2023-04-02T06:47:49;96297.03;;;15.96;60.57
8061;BME280;4073;42.626;25.386;2023-04-02T06:50:21;96293.19;;;16.06;61.55
8061;BME280;4073;42.626;25.386;2023-04-02T06:52:50;96296.03;;;16.50;61.92
8061;BME280;4073;42.626;25.386;2023-04-02T06:57:45;96310.16;;;16.88;58.80
8061;BME280;4073;42.626;25.386;2023-04-02T07:02:47;96310.38;;;16.63;58.46
8061;BME280;4073;42.626;25.386;2023-04-02T07:05:14;96313.53;;;16.65;57.76
8061;BME280;4073;42.626;25.386;2023-04-02T07:07:39;96322.63;;;16.60;57.17
8061;BME280;4073;42.626;25.386;2023-04-02T07:10:05;96315.84;;;16.54;57.88
8061;BME280;4073;42.626;25.386;2023-04-02T07:12:33;96322.22;;;16.70;57.99
8061;BME280;4073;42.626;25.386;2023-04-02T07:14:58;96328.78;;;16.81;57.78
8061;BME280;4073;42.626;25.386;2023-04-02T07:17:24;96329.19;;;16.92;57.39
8061;BME280;4073;42.626;25.386;2023-04-02T07:19:50;96325.91;;;16.86;57.45
8061;BME280;4073;42.626;25.386;2023-04-02T07:22:16;96329.03;;;16.88;57.43
8061;BME280;4073;42.626;25.386;2023-04-02T07:24:43;96333.53;;;17.17;56.62
8061;BME280;4073;42.626;25.386;2023-04-02T07:27:10;96333.03;;;17.35;55.11
8061;BME280;4073;42.626;25.386;2023-04-02T07:29:35;96335.13;;;17.50;54.29
8061;BME280;4073;42.626;25.386;2023-04-02T07:32:10;96333.91;;;17.60;53.92
8061;BME280;4073;42.626;25.386;2023-04-02T07:34:37;96338.06;;;17.69;53.53
8061;BME280;4073;42.626;25.386;2023-04-02T07:37:02;96346.66;;;17.95;53.01
8061;BME280;4073;42.626;25.386;2023-04-02T07:39:28;96340.22;;;18.48;51.15
8061;BME280;4073;42.626;25.386;2023-04-02T07:41:59;96338.03;;;18.93;50.55
8061;BME280;4073;42.626;25.386;2023-04-02T07:44:25;96333.31;;;19.18;47.39
8061;BME280;4073;42.626;25.386;2023-04-02T07:46:50;96332.81;;;19.71;48.35
8061;BME280;4073;42.626;25.386;2023-04-02T07:49:16;96322.38;;;19.73;46.59
8061;BME280;4073;42.626;25.386;2023-04-02T07:51:41;96330.00;;;19.98;45.85
8061;BME280;4073;42.626;25.386;2023-04-02T07:54:06;96338.22;;;20.33;44.17
8061;BME280;4073;42.626;25.386;2023-04-02T07:56:35;96335.16;;;20.69;44.34
8061;BME280;4073;42.626;25.386;2023-04-02T07:59:01;96336.88;;;21.15;43.24
8061;BME280;4073;42.626;25.386;2023-04-02T08:01:28;96324.94;;;21.39;41.30
8061;BME280;4073;42.626;25.386;2023-04-02T08:03:56;96328.78;;;21.38;41.26
8061;BME280;4073;42.626;25.386;2023-04-02T08:06:23;96329.34;;;21.69;40.50
8061;BME280;4073;42.626;25.386;2023-04-02T08:08:48;96335.25;;;21.94;39.66
8061;BME280;4073;42.626;25.386;2023-04-02T08:11:14;96316.47;;;22.11;39.21
8061;BME280;4073;42.626;25.386;2023-04-02T08:13:39;96330.56;;;22.43;37.90
8061;BME280;4073;42.626;25.386;2023-04-02T08:16:06;96329.94;;;22.79;37.77
8061;BME280;4073;42.626;25.386;2023-04-02T08:18:32;96321.22;;;22.70;36.98
8061;BME280;4073;42.626;25.386;2023-04-02T08:20:58;96323.69;;;22.49;35.83
8061;BME280;4073;42.626;25.386;2023-04-02T08:23:24;96319.31;;;22.70;36.21
8061;BME280;4073;42.626;25.386;2023-04-02T08:25:50;96323.78;;;22.86;36.12
8061;BME280;4073;42.626;25.386;2023-04-02T08:28:15;96332.81;;;22.93;34.65
8061;BME280;4073;42.626;25.386;2023-04-02T08:30:41;96328.66;;;23.03;35.30
8061;BME280;4073;42.626;25.386;2023-04-02T08:33:07;96333.66;;;22.97;35.09
8061;BME280;4073;42.626;25.386;2023-04-02T08:35:32;96330.94;;;22.67;35.56
8061;BME280;4073;42.626;25.386;2023-04-02T08:37:59;96315.03;;;23.03;34.89
8061;BME280;4073;42.626;25.386;2023-04-02T08:40:30;96332.16;;;23.33;32.84
8061;BME280;4073;42.626;25.386;2023-04-02T08:46:08;96329.66;;;23.21;31.35
8061;BME280;4073;42.626;25.386;2023-04-02T08:48:37;96334.47;;;23.31;31.60
8061;BME280;4073;42.626;25.386;2023-04-02T08:51:06;96338.94;;;23.49;30.99
8061;BME280;4073;42.626;25.386;2023-04-02T08:53:35;96335.75;;;23.40;31.05
8061;BME280;4073;42.626;25.386;2023-04-02T08:56:15;96337.09;;;23.57;30.75
8061;BME280;4073;42.626;25.386;2023-04-02T08:58:46;96325.34;;;23.93;30.24
8061;BME280;4073;42.626;25.386;2023-04-02T09:04:20;96320.84;;;24.11;29.35
8061;BME280;4073;42.626;25.386;2023-04-02T09:06:48;96331.50;;;23.83;29.94
8061;BME280;4073;42.626;25.386;2023-04-02T09:09:16;96334.16;;;23.76;30.41
8061;BME280;4073;42.626;25.386;2023-04-02T09:14:34;96325.63;;;23.81;29.65
8061;BME280;4073;42.626;25.386;2023-04-02T09:17:16;96344.06;;;24.38;29.86
8061;BME280;4073;42.626;25.386;2023-04-02T09:22:28;96349.63;;;24.01;29.81
8061;BME280;4073;42.626;25.386;2023-04-02T09:24:58;96352.09;;;24.17;29.06
8061;BME280;4073;42.626;25.386;2023-04-02T09:27:29;96347.22;;;24.40;28.91
8061;BME280;4073;42.626;25.386;2023-04-02T09:29:59;96350.78;;;24.51;29.10
8061;BME280;4073;42.626;25.386;2023-04-02T09:32:44;96353.34;;;24.80;27.85
8061;BME280;4073;42.626;25.386;2023-04-02T09:35:19;96358.38;;;24.75;28.22
8061;BME280;4073;42.626;25.386;2023-04-02T09:37:45;96349.88;;;24.33;28.92
8061;BME280;4073;42.626;25.386;2023-04-02T09:42:42;96353.34;;;23.17;30.82
8061;BME280;4073;42.626;25.386;2023-04-02T09:45:20;96356.53;;;22.37;31.41
8061;BME280;4073;42.626;25.386;2023-04-02T09:47:46;96349.09;;;22.08;32.02
8061;BME280;4073;42.626;25.386;2023-04-02T09:52:39;96336.34;;;21.89;33.29
8061;BME280;4073;42.626;25.386;2023-04-02T09:57:39;96344.91;;;22.40;32.08
8061;BME280;4073;42.626;25.386;2023-04-02T10:02:44;96332.19;;;22.73;30.76
8061;BME280;4073;42.626;25.386;2023-04-02T10:05:21;96334.25;;;23.13;31.02
8061;BME280;4073;42.626;25.386;2023-04-02T10:07:51;96333.16;;;23.54;30.20
8061;BME280;4073;42.626;25.386;2023-04-02T10:10:30;96331.22;;;23.95;30.23
8061;BME280;4073;42.626;25.386;2023-04-02T10:13:03;96329.41;;;24.06;29.93
8061;BME280;4073;42.626;25.386;2023-04-02T10:15:39;96329.66;;;23.94;28.79
8061;BME280;4073;42.626;25.386;2023-04-02T10:20:55;96327.25;;;24.32;28.42
8061;BME280;4073;42.626;25.386;2023-04-02T10:23:26;96318.38;;;24.53;28.62
8061;BME280;4073;42.626;25.386;2023-04-02T10:31:21;96320.09;;;24.71;28.61
8061;BME280;4073;42.626;25.386;2023-04-02T10:33:51;96297.94;;;24.90;28.65
8061;BME280;4073;42.626;25.386;2023-04-02T10:36:44;96314.41;;;25.01;29.03
8061;BME280;4073;42.626;25.386;2023-04-02T10:39:23;96312.13;;;24.49;28.43
8061;BME280;4073;42.626;25.386;2023-04-02T10:42:02;96322.69;;;23.60;29.75
8061;BME280;4073;42.626;25.386;2023-04-02T10:55:24;96310.25;;;24.02;28.61
8061;BME280;4073;42.626;25.386;2023-04-02T10:57:52;96309.59;;;24.77;26.25
8061;BME280;4073;42.626;25.386;2023-04-02T11:00:29;96293.75;;;25.21;25.77
8061;BME280;4073;42.626;25.386;2023-04-02T11:03:03;96291.88;;;25.43;25.42
8061;BME280;4073;42.626;25.386;2023-04-02T11:08:19;96285.25;;;25.54;26.17
8061;BME280;4073;42.626;25.386;2023-04-02T11:10:54;96295.69;;;23.91;28.10
8061;BME280;4073;42.626;25.386;2023-04-02T11:15:58;96305.34;;;24.90;25.98
8061;BME280;4073;42.626;25.386;2023-04-02T11:20:59;96288.63;;;24.34;28.17
8061;BME280;4073;42.626;25.386;2023-04-02T11:23:27;96281.34;;;23.54;29.58
8061;BME280;4073;42.626;25.386;2023-04-02T11:26:33;96287.97;;;23.20;30.83
8061;BME280;4073;42.626;25.386;2023-04-02T11:29:30;96279.16;;;22.67;30.47
8061;BME280;4073;42.626;25.386;2023-04-02T11:48:33;96276.22;;;21.53;30.17
8061;BME280;4073;42.626;25.386;2023-04-02T11:53:41;96276.47;;;21.44;30.23
8061;BME280;4073;42.626;25.386;2023-04-02T11:56:19;96270.34;;;21.51;30.75
8061;BME280;4073;42.626;25.386;2023-04-02T11:59:15;96266.09;;;21.72;31.00
8061;BME280;4073;42.626;25.386;2023-04-02T12:01:53;96271.44;;;22.17;31.33
8061;BME280;4073;42.626;25.386;2023-04-02T12:09:54;96261.66;;;23.02;30.30
8061;BME280;4073;42.626;25.386;2023-04-02T12:12:28;96259.69;;;22.65;29.09
8061;BME280;4073;42.626;25.386;2023-04-02T12:14:58;96265.91;;;22.36;28.96
8061;BME280;4073;42.626;25.386;2023-04-02T12:17:28;96258.56;;;22.40;29.61
8061;BME280;4073;42.626;25.386;2023-04-02T12:20:00;96263.63;;;22.42;28.51
8061;BME280;4073;42.626;25.386;2023-04-02T12:22:30;96259.19;;;22.56;28.48
8061;BME280;4073;42.626;25.386;2023-04-02T12:25:06;96258.38;;;22.86;28.60
8061;BME280;4073;42.626;25.386;2023-04-02T12:27:44;96257.78;;;23.03;30.33
8061;BME280;4073;42.626;25.386;2023-04-02T12:30:21;96236.63;;;22.89;30.59
8061;BME280;4073;42.626;25.386;2023-04-02T12:32:47;96244.34;;;22.84;31.28
8061;BME280;4073;42.626;25.386;2023-04-02T12:35:33;96245.31;;;23.02;30.52
8061;BME280;4073;42.626;25.386;2023-04-02T12:38:00;96247.25;;;23.01;27.88
8061;BME280;4073;42.626;25.386;2023-04-02T12:40:26;96234.84;;;23.07;27.91
8061;BME280;4073;42.626;25.386;2023-04-02T12:42:52;96236.84;;;22.77;29.56
8061;BME280;4073;42.626;25.386;2023-04-02T12:45:25;96241.41;;;22.40;29.95
8061;BME280;4073;42.626;25.386;2023-04-02T12:47:51;96236.13;;;21.95;31.46
8061;BME280;4073;42.626;25.386;2023-04-02T12:50:19;96239.75;;;21.57;33.22
8061;BME280;4073;42.626;25.386;2023-04-02T12:52:50;96232.00;;;21.78;31.91
8061;BME280;4073;42.626;25.386;2023-04-02T12:55:19;96243.09;;;21.92;32.09
8061;BME280;4073;42.626;25.386;2023-04-02T12:57:45;96241.09;;;22.15;32.37
8061;BME280;4073;42.626;25.386;2023-04-02T13:02:50;96242.13;;;22.63;30.62
8061;BME280;4073;42.626;25.386;2023-04-02T13:05:37;96236.91;;;22.81;30.25
8061;BME280;4073;42.626;25.386;2023-04-02T13:08:15;96224.09;;;22.85;29.92
8061;BME280;4073;42.626;25.386;2023-04-02T13:10:42;96240.97;;;22.97;29.99
8061;BME280;4073;42.626;25.386;2023-04-02T13:13:16;96235.44;;;22.90;29.17
8061;BME280;4073;42.626;25.386;2023-04-02T13:15:59;96235.50;;;22.94;28.98
8061;BME280;4073;42.626;25.386;2023-04-02T13:18:25;96235.75;;;22.82;29.97
8061;BME280;4073;42.626;25.386;2023-04-02T13:23:41;96219.31;;;22.74;30.13
8061;BME280;4073;42.626;25.386;2023-04-02T13:26:14;96223.97;;;22.74;30.40
8061;BME280;4073;42.626;25.386;2023-04-02T13:28:40;96225.50;;;22.71;29.79
8061;BME280;4073;42.626;25.386;2023-04-02T13:31:13;96222.03;;;22.74;30.25
8061;BME280;4073;42.626;25.386;2023-04-02T13:33:39;96234.00;;;23.00;30.02
8061;BME280;4073;42.626;25.386;2023-04-02T13:36:05;96230.72;;;22.84;29.64
8061;BME280;4073;42.626;25.386;2023-04-02T13:38:30;96231.84;;;22.79;29.97
8061;BME280;4073;42.626;25.386;2023-04-02T13:40:56;96235.44;;;22.90;29.90
8061;BME280;4073;42.626;25.386;2023-04-02T13:43:21;96221.50;;;22.62;28.92
8061;BME280;4073;42.626;25.386;2023-04-02T13:45:51;96225.41;;;22.35;29.86
8061;BME280;4073;42.626;25.386;2023-04-02T13:48:18;96235.06;;;22.29;30.08
8061;BME280;4073;42.626;25.386;2023-04-02T13:50:44;96235.16;;;22.36;30.43
8061;BME280;4073;42.626;25.386;2023-04-02T13:53:28;96228.25;;;22.45;29.69
8061;BME280;4073;42.626;25.386;2023-04-02T13:55:54;96225.00;;;22.33;29.99
8061;BME280;4073;42.626;25.386;2023-04-02T13:58:20;96229.78;;;21.87;31.43
8061;BME280;4073;42.626;25.386;2023-04-02T14:00:47;96226.41;;;21.71;31.94
8061;BME280;4073;42.626;25.386;2023-04-02T14:03:19;96232.00;;;21.56;31.39
8061;BME280;4073;42.626;25.386;2023-04-02T14:06:10;96225.88;;;21.40;32.18
8061;BME280;4073;42.626;25.386;2023-04-02T14:11:43;96217.31;;;21.38;31.78
8061;BME280;4073;42.626;25.386;2023-04-02T14:17:27;96215.47;;;21.68;31.29
8061;BME280;4073;42.626;25.386;2023-04-02T14:35:53;96221.75;;;21.72;31.18
8061;BME280;4073;42.626;25.386;2023-04-02T14:38:32;96216.88;;;21.81;30.52
8061;BME280;4073;42.626;25.386;2023-04-02T14:41:41;96213.78;;;21.60;31.51
8061;BME280;4073;42.626;25.386;2023-04-02T14:44:10;96206.97;;;21.47;31.37
8061;BME280;4073;42.626;25.386;2023-04-02T14:46:37;96217.66;;;21.59;31.02
8061;BME280;4073;42.626;25.386;2023-04-02T14:54:32;96218.56;;;21.44;30.47
8061;BME280;4073;42.626;25.386;2023-04-02T14:59:59;96209.09;;;20.93;32.21
8061;BME280;4073;42.626;25.386;2023-04-02T15:05:16;96226.28;;;20.78;31.42
8061;BME280;4073;42.626;25.386;2023-04-02T15:07:49;96215.94;;;20.64;31.56
8061;BME280;4073;42.626;25.386;2023-04-02T15:11:17;96231.50;;;20.67;31.74
8061;BME280;4073;42.626;25.386;2023-04-02T15:13:28;96220.91;;;20.62;31.73
8061;BME280;4073;42.626;25.386;2023-04-02T15:15:59;96222.66;;;20.70;32.50
8061;BME280;4073;42.626;25.386;2023-04-02T15:18:29;96223.94;;;20.76;31.47
8061;BME280;4073;42.626;25.386;2023-04-02T15:21:02;96228.13;;;20.74;32.38
8061;BME280;4073;42.626;25.386;2023-04-02T15:31:25;96236.44;;;21.00;31.16
8061;BME280;4073;42.626;25.386;2023-04-02T15:42:12;96243.31;;;20.21;33.64
8061;BME280;4073;42.626;25.386;2023-04-02T15:47:47;96247.41;;;19.96;35.58
8061;BME280;4073;42.626;25.386;2023-04-02T15:55:57;96244.56;;;19.58;37.04
8061;BME280;4073;42.626;25.386;2023-04-02T15:59:01;96259.88;;;19.50;37.83
8061;BME280;4073;42.626;25.386;2023-04-02T16:01:39;96256.41;;;19.22;38.62
8061;BME280;4073;42.626;25.386;2023-04-02T16:07:11;96276.22;;;18.95;39.82
8061;BME280;4073;42.626;25.386;2023-04-02T16:10:15;96278.88;;;18.80;39.21
8061;BME280;4073;42.626;25.386;2023-04-02T16:12:45;96274.53;;;18.63;39.50
8061;BME280;4073;42.626;25.386;2023-04-02T16:15:34;96288.06;;;18.63;39.17
8061;BME280;4073;42.626;25.386;2023-04-02T16:18:10;96284.31;;;18.40;39.81
8061;BME280;4073;42.626;25.386;2023-04-02T16:20:45;96297.16;;;18.31;40.16
8061;BME280;4073;42.626;25.386;2023-04-02T16:23:14;96283.22;;;17.93;40.91
8061;BME280;4073;42.626;25.386;2023-04-02T16:34:40;96309.38;;;17.65;42.45
8061;BME280;4073;42.626;25.386;2023-04-02T16:39:56;96309.91;;;17.46;43.41
8061;BME280;4073;42.626;25.386;2023-04-02T17:01:08;96308.47;;;17.16;44.65
8061;BME280;4073;42.626;25.386;2023-04-02T17:07:02;96319.59;;;17.15;44.79
8061;BME280;4073;42.626;25.386;2023-04-02T17:12:15;96325.75;;;17.03;44.87
8061;BME280;4073;42.626;25.386;2023-04-02T17:15:15;96327.94;;;16.89;44.78
8061;BME280;4073;42.626;25.386;2023-04-02T17:17:36;96330.06;;;16.63;45.36
8061;BME280;4073;42.626;25.386;2023-04-02T17:20:08;96339.53;;;16.69;45.95
8061;BME280;4073;42.626;25.386;2023-04-02T17:22:38;96340.69;;;16.68;46.10
8061;BME280;4073;42.626;25.386;2023-04-02T17:25:11;96317.56;;;16.59;46.64
8061;BME280;4073;42.626;25.386;2023-04-02T17:27:44;96345.38;;;16.71;47.40
8061;BME280;4073;42.626;25.386;2023-04-02T17:30:15;96347.16;;;16.67;47.72
8061;BME280;4073;42.626;25.386;2023-04-02T17:32:42;96352.78;;;16.62;47.57
8061;BME280;4073;42.626;25.386;2023-04-02T17:38:09;96372.88;;;16.44;49.24
8061;BME280;4073;42.626;25.386;2023-04-02T17:43:12;96380.13;;;16.23;50.92
8061;BME280;4073;42.626;25.386;2023-04-02T17:48:38;96400.03;;;16.10;50.66
8061;BME280;4073;42.626;25.386;2023-04-02T17:59:24;96412.19;;;15.87;49.34
8061;BME280;4073;42.626;25.386;2023-04-02T18:07:05;96432.22;;;16.15;49.51
8061;BME280;4073;42.626;25.386;2023-04-02T18:10:09;96439.38;;;16.11;52.16
8061;BME280;4073;42.626;25.386;2023-04-02T18:52:46;96450.66;;;15.07;57.25
8061;BME280;4073;42.626;25.386;2023-04-02T18:55:21;96454.44;;;15.06;57.29